sensor_id;sensor_type;location;lat;lon;timestamp;pressure;altitude;pressure_sealevel;temperature;humidity
33506;BME280;19843;51.040;13.782;2023-12-20T00:00:36;99946.19;;;6.73;100.00
33506;BME280;19843;51.040;13.782;2023-12-20T00:03:04;99947.00;;;6.90;100.00
33506;BME280;19843;51.040;13.782;2023-12-20T00:05:31;99951.41;;;6.83;100.00
33506;BME280;19843;51.040;13.782;2023-12-20T00:07:59;99955.31;;;6.56;100.00
33506;BME280;19843;51.040;13.782;2023-12-20T00:10:28;99955.81;;;6.66;100.00
33506;BME280;19843;51.040;13.782;2023-12-20T00:12:56;99951.25;;;6.62;100.00
33506;BME280;19843;51.040;13.782;2023-12-20T00:15:23;99940.97;;;6.71;100.00
33506;BME280;19843;51.040;13.782;2023-12-20T00:17:51;99941.59;;;6.77;100.00
33506;BME280;19843;51.040;13.782;2023-12-20T00:20:18;99926.59;;;6.69;100.00
33506;BME280;19843;51.040;13.782;2023-12-20T00:22:46;99931.00;;;6.70;100.00
33506;BME280;19843;51.040;13.782;2023-12-20T00:25:13;99926.59;;;6.43;100.00
33506;BME280;19843;51.040;13.782;2023-12-20T00:27:42;99932.00;;;6.65;100.00
33506;BME280;19843;51.040;13.782;2023-12-20T00:30:11;99927.25;;;6.66;100.00
33506;BME280;19843;51.040;13.782;2023-12-20T00:32:38;99916.97;;;6.75;100.00
33506;BME280;19843;51.040;13.782;2023-12-20T00:35:07;99929.03;;;6.45;100.00
33506;BME280;19843;51.040;13.782;2023-12-20T00:37:35;99931.00;;;6.53;100.00
33506;BME280;19843;51.040;13.782;2023-12-20T00:40:03;99932.47;;;6.67;100.00
33506;BME280;19843;51.040;13.782;2023-12-20T00:42:31;99936.50;;;6.35;100.00
33506;BME280;19843;51.040;13.782;2023-12-20T00:45:00;99939.78;;;6.37;100.00
33506;BME280;19843;51.040;13.782;2023-12-20T00:47:27;99935.22;;;6.33;100.00
33506;BME280;19843;51.040;13.782;2023-12-20T00:49:55;99923.78;;;6.26;100.00
33506;BME280;19843;51.040;13.782;2023-12-20T00:52:21;99925.41;;;6.35;100.00
33506;BME280;19843;51.040;13.782;2023-12-20T00:54:49;99915.31;;;6.22;100.00
33506;BME280;19843;51.040;13.782;2023-12-20T00:57:17;99918.75;;;6.28;100.00
33506;BME280;19843;51.040;13.782;2023-12-20T00:59:44;99924.81;;;6.56;100.00
33506;BME280;19843;51.040;13.782;2023-12-20T01:02:13;99918.56;;;6.24;100.00
33506;BME280;19843;51.040;13.782;2023-12-20T01:04:40;99914.53;;;6.56;100.00
33506;BME280;19843;51.040;13.782;2023-12-20T01:07:08;99907.16;;;6.43;100.00
33506;BME280;19843;51.040;13.782;2023-12-20T01:09:35;99903.91;;;6.32;100.00
33506;BME280;19843;51.040;13.782;2023-12-20T01:12:03;99904.06;;;6.27;100.00
33506;BME280;19843;51.040;13.782;2023-12-20T01:14:31;99899.59;;;6.00;100.00
33506;BME280;19843;51.040;13.782;2023-12-20T01:16:59;99885.63;;;6.23;100.00
33506;BME280;19843;51.040;13.782;2023-12-20T01:19:28;99896.34;;;6.07;100.00
33506;BME280;19843;51.040;13.782;2023-12-20T01:21:56;99889.81;;;6.03;100.00
33506;BME280;19843;51.040;13.782;2023-12-20T01:24:23;99889.25;;;6.32;100.00
33506;BME280;19843;51.040;13.782;2023-12-20T01:26:51;99887.44;;;6.62;99.73
33506;BME280;19843;51.040;13.782;2023-12-20T01:29:18;99888.25;;;6.36;99.16
33506;BME280;19843;51.040;13.782;2023-12-20T01:31:46;99884.59;;;6.01;100.00
33506;BME280;19843;51.040;13.782;2023-12-20T01:34:13;99886.44;;;6.14;100.00
33506;BME280;19843;51.040;13.782;2023-12-20T01:36:43;99883.69;;;6.40;100.00
33506;BME280;19843;51.040;13.782;2023-12-20T01:39:10;99891.16;;;6.14;99.10
33506;BME280;19843;51.040;13.782;2023-12-20T01:41:53;99882.22;;;5.77;100.00
33506;BME280;19843;51.040;13.782;2023-12-20T01:44:20;99871.91;;;6.26;100.00
33506;BME280;19843;51.040;13.782;2023-12-20T01:46:48;99883.03;;;6.35;100.00
33506;BME280;19843;51.040;13.782;2023-12-20T01:49:16;99881.03;;;6.09;99.94
33506;BME280;19843;51.040;13.782;2023-12-20T01:51:45;99870.13;;;6.30;100.00
33506;BME280;19843;51.040;13.782;2023-12-20T01:54:12;99879.94;;;6.54;99.32
33506;BME280;19843;51.040;13.782;2023-12-20T01:56:40;99878.28;;;6.18;98.73
33506;BME280;19843;51.040;13.782;2023-12-20T01:59:08;99872.88;;;6.04;99.60
33506;BME280;19843;51.040;13.782;2023-12-20T02:01:36;99878.16;;;5.83;100.00
33506;BME280;19843;51.040;13.782;2023-12-20T02:04:04;99878.44;;;6.30;99.36
33506;BME280;19843;51.040;13.782;2023-12-20T02:06:33;99873.38;;;6.06;100.00
33506;BME280;19843;51.040;13.782;2023-12-20T02:09:03;99870.84;;;5.87;100.00
33506;BME280;19843;51.040;13.782;2023-12-20T02:11:30;99870.13;;;6.13;100.00
33506;BME280;19843;51.040;13.782;2023-12-20T02:13:57;99870.84;;;5.87;100.00
33506;BME280;19843;51.040;13.782;2023-12-20T02:16:25;99866.34;;;6.00;100.00
33506;BME280;19843;51.040;13.782;2023-12-20T02:18:53;99859.53;;;6.15;100.00
33506;BME280;19843;51.040;13.782;2023-12-20T02:21:25;99859.69;;;6.36;98.87
33506;BME280;19843;51.040;13.782;2023-12-20T02:23:58;99864.22;;;5.97;100.00
33506;BME280;19843;51.040;13.782;2023-12-20T02:26:26;99862.34;;;5.67;100.00
33506;BME280;19843;51.040;13.782;2023-12-20T02:28:54;99856.13;;;6.18;99.70
33506;BME280;19843;51.040;13.782;2023-12-20T02:31:22;99851.69;;;6.17;99.47
33506;BME280;19843;51.040;13.782;2023-12-20T02:33:50;99845.00;;;6.09;98.36
33506;BME280;19843;51.040;13.782;2023-12-20T02:36:17;99854.28;;;5.96;99.61
33506;BME280;19843;51.040;13.782;2023-12-20T02:38:46;99848.25;;;6.03;100.00
33506;BME280;19843;51.040;13.782;2023-12-20T02:41:14;99851.63;;;5.91;99.62
33506;BME280;19843;51.040;13.782;2023-12-20T02:43:45;99838.16;;;5.98;99.22
33506;BME280;19843;51.040;13.782;2023-12-20T02:46:14;99837.72;;;5.74;98.61
33506;BME280;19843;51.040;13.782;2023-12-20T02:48:43;99840.09;;;5.98;100.00
33506;BME280;19843;51.040;13.782;2023-12-20T02:51:11;99834.06;;;5.96;100.00
33506;BME280;19843;51.040;13.782;2023-12-20T02:53:38;99835.41;;;5.58;100.00
33506;BME280;19843;51.040;13.782;2023-12-20T02:56:07;99829.81;;;5.89;100.00
33506;BME280;19843;51.040;13.782;2023-12-20T02:58:35;99835.91;;;5.52;100.00
33506;BME280;19843;51.040;13.782;2023-12-20T03:01:02;99834.50;;;5.80;100.00
33506;BME280;19843;51.040;13.782;2023-12-20T03:03:31;99837.06;;;5.68;100.00
33506;BME280;19843;51.040;13.782;2023-12-20T03:05:58;99834.81;;;5.79;100.00
33506;BME280;19843;51.040;13.782;2023-12-20T03:08:26;99828.31;;;5.83;100.00
33506;BME280;19843;51.040;13.782;2023-12-20T03:10:59;99836.59;;;5.66;100.00
33506;BME280;19843;51.040;13.782;2023-12-20T03:13:27;99827.44;;;5.57;100.00
33506;BME280;19843;51.040;13.782;2023-12-20T03:15:55;99826.84;;;5.77;100.00
33506;BME280;19843;51.040;13.782;2023-12-20T03:18:22;99826.78;;;5.60;100.00
33506;BME280;19843;51.040;13.782;2023-12-20T03:20:50;99824.56;;;5.71;100.00
33506;BME280;19843;51.040;13.782;2023-12-20T03:23:17;99820.91;;;5.53;100.00
33506;BME280;19843;51.040;13.782;2023-12-20T03:25:45;99828.88;;;5.54;100.00
33506;BME280;19843;51.040;13.782;2023-12-20T03:28:14;99819.97;;;5.66;100.00
33506;BME280;19843;51.040;13.782;2023-12-20T03:30:43;99810.44;;;5.41;100.00
33506;BME280;19843;51.040;13.782;2023-12-20T03:33:10;99814.34;;;5.40;100.00
33506;BME280;19843;51.040;13.782;2023-12-20T03:35:38;99805.66;;;5.73;100.00
33506;BME280;19843;51.040;13.782;2023-12-20T03:38:05;99805.47;;;5.60;100.00
33506;BME280;19843;51.040;13.782;2023-12-20T03:40:33;99801.78;;;5.34;100.00
33506;BME280;19843;51.040;13.782;2023-12-20T03:43:00;99800.66;;;5.35;100.00
33506;BME280;19843;51.040;13.782;2023-12-20T03:45:28;99800.56;;;5.57;100.00
33506;BME280;19843;51.040;13.782;2023-12-20T03:47:57;99802.47;;;5.39;100.00
33506;BME280;19843;51.040;13.782;2023-12-20T03:50:25;99797.72;;;5.40;100.00
33506;BME280;19843;51.040;13.782;2023-12-20T03:52:53;99803.94;;;5.46;100.00
33506;BME280;19843;51.040;13.782;2023-12-20T03:55:20;99802.69;;;5.69;100.00
33506;BME280;19843;51.040;13.782;2023-12-20T03:57:48;99808.03;;;5.48;100.00
33506;BME280;19843;51.040;13.782;2023-12-20T04:00:16;99802.69;;;5.52;100.00
33506;BME280;19843;51.040;13.782;2023-12-20T04:02:43;99795.47;;;5.42;100.00
33506;BME280;19843;51.040;13.782;2023-12-20T04:05:12;99802.78;;;5.38;100.00
33506;BME280;19843;51.040;13.782;2023-12-20T04:07:39;99810.47;;;5.50;100.00
33506;BME280;19843;51.040;13.782;2023-12-20T04:10:08;99801.56;;;5.61;100.00
33506;BME280;19843;51.040;13.782;2023-12-20T04:12:35;99796.63;;;5.50;100.00
33506;BME280;19843;51.040;13.782;2023-12-20T04:15:04;99798.59;;;5.49;100.00
33506;BME280;19843;51.040;13.782;2023-12-20T04:17:35;99793.13;;;5.75;100.00
33506;BME280;19843;51.040;13.782;2023-12-20T04:20:04;99803.69;;;5.73;100.00
33506;BME280;19843;51.040;13.782;2023-12-20T04:22:33;99805.75;;;5.50;100.00
33506;BME280;19843;51.040;13.782;2023-12-20T04:25:01;99796.06;;;5.87;100.00
33506;BME280;19843;51.040;13.782;2023-12-20T04:27:28;99807.41;;;5.60;100.00
33506;BME280;19843;51.040;13.782;2023-12-20T04:29:56;99808.44;;;5.81;100.00
33506;BME280;19843;51.040;13.782;2023-12-20T04:32:23;99800.88;;;5.47;100.00
33506;BME280;19843;51.040;13.782;2023-12-20T04:34:51;99810.94;;;5.43;100.00
33506;BME280;19843;51.040;13.782;2023-12-20T04:37:18;99806.31;;;5.87;100.00
33506;BME280;19843;51.040;13.782;2023-12-20T04:39:47;99806.16;;;5.75;100.00
33506;BME280;19843;51.040;13.782;2023-12-20T04:42:15;99807.47;;;5.86;100.00
33506;BME280;19843;51.040;13.782;2023-12-20T04:44:42;99808.25;;;5.69;100.00
33506;BME280;19843;51.040;13.782;2023-12-20T04:47:11;99801.88;;;5.69;100.00
33506;BME280;19843;51.040;13.782;2023-12-20T04:49:38;99803.81;;;5.59;100.00
33506;BME280;19843;51.040;13.782;2023-12-20T04:52:06;99804.59;;;5.43;100.00
33506;BME280;19843;51.040;13.782;2023-12-20T04:54:33;99807.41;;;5.51;100.00
33506;BME280;19843;51.040;13.782;2023-12-20T04:57:02;99818.47;;;5.60;100.00
33506;BME280;19843;51.040;13.782;2023-12-20T04:59:30;99811.50;;;5.71;100.00
33506;BME280;19843;51.040;13.782;2023-12-20T05:01:57;99816.91;;;5.76;100.00
33506;BME280;19843;51.040;13.782;2023-12-20T05:04:25;99815.91;;;5.72;100.00
33506;BME280;19843;51.040;13.782;2023-12-20T05:06:52;99818.03;;;5.75;100.00
33506;BME280;19843;51.040;13.782;2023-12-20T05:09:20;99811.50;;;5.62;100.00
33506;BME280;19843;51.040;13.782;2023-12-20T05:11:47;99813.34;;;5.93;100.00
33506;BME280;19843;51.040;13.782;2023-12-20T05:14:16;99821.78;;;5.71;100.00
33506;BME280;19843;51.040;13.782;2023-12-20T05:16:44;99818.03;;;5.84;100.00
33506;BME280;19843;51.040;13.782;2023-12-20T05:19:11;99810.56;;;5.84;100.00
33506;BME280;19843;51.040;13.782;2023-12-20T05:21:40;99804.59;;;6.08;100.00
33506;BME280;19843;51.040;13.782;2023-12-20T05:24:08;99811.91;;;5.96;100.00
33506;BME280;19843;51.040;13.782;2023-12-20T05:26:35;99826.47;;;5.61;100.00
33506;BME280;19843;51.040;13.782;2023-12-20T05:29:03;99833.03;;;5.83;100.00
33506;BME280;19843;51.040;13.782;2023-12-20T05:31:32;99832.06;;;5.87;100.00
33506;BME280;19843;51.040;13.782;2023-12-20T05:33:59;99833.84;;;5.75;100.00
33506;BME280;19843;51.040;13.782;2023-12-20T05:36:27;99828.97;;;5.80;100.00
33506;BME280;19843;51.040;13.782;2023-12-20T05:38:54;99838.72;;;5.78;100.00
33506;BME280;19843;51.040;13.782;2023-12-20T05:41:22;99829.63;;;5.86;100.00
33506;BME280;19843;51.040;13.782;2023-12-20T05:43:49;99828.63;;;5.82;100.00
33506;BME280;19843;51.040;13.782;2023-12-20T05:46:17;99829.28;;;5.70;100.00
33506;BME280;19843;51.040;13.782;2023-12-20T05:48:46;99842.44;;;5.64;100.00
33506;BME280;19843;51.040;13.782;2023-12-20T05:51:13;99842.34;;;5.87;100.00
33506;BME280;19843;51.040;13.782;2023-12-20T05:53:41;99841.34;;;5.83;100.00
33506;BME280;19843;51.040;13.782;2023-12-20T05:56:08;99842.63;;;5.68;100.00
33506;BME280;19843;51.040;13.782;2023-12-20T05:58:36;99839.84;;;5.68;100.00
33506;BME280;19843;51.040;13.782;2023-12-20T06:01:04;99848.50;;;5.75;100.00
33506;BME280;19843;51.040;13.782;2023-12-20T06:03:32;99849.50;;;5.79;100.00
33506;BME280;19843;51.040;13.782;2023-12-20T06:06:06;99853.94;;;5.89;100.00
33506;BME280;19843;51.040;13.782;2023-12-20T06:08:42;99856.81;;;5.84;100.00
33506;BME280;19843;51.040;13.782;2023-12-20T06:11:10;99866.59;;;5.81;100.00
33506;BME280;19843;51.040;13.782;2023-12-20T06:13:38;99852.94;;;5.85;100.00
33506;BME280;19843;51.040;13.782;2023-12-20T06:16:06;99845.25;;;5.82;100.00
33506;BME280;19843;51.040;13.782;2023-12-20T06:18:34;99852.31;;;5.97;100.00
33506;BME280;19843;51.040;13.782;2023-12-20T06:21:09;99850.06;;;5.99;100.00
33506;BME280;19843;51.040;13.782;2023-12-20T06:23:40;99856.00;;;5.83;100.00
33506;BME280;19843;51.040;13.782;2023-12-20T06:26:13;99862.88;;;5.86;100.00
33506;BME280;19843;51.040;13.782;2023-12-20T06:28:51;99854.78;;;6.07;100.00
33506;BME280;19843;51.040;13.782;2023-12-20T06:31:27;99857.16;;;5.82;100.00
33506;BME280;19843;51.040;13.782;2023-12-20T06:34:04;99860.59;;;5.88;100.00
33506;BME280;19843;51.040;13.782;2023-12-20T06:36:36;99862.41;;;5.93;100.00
33506;BME280;19843;51.040;13.782;2023-12-20T06:39:20;99871.81;;;5.83;100.00
33506;BME280;19843;51.040;13.782;2023-12-20T06:41:56;99875.84;;;6.08;100.00
33506;BME280;19843;51.040;13.782;2023-12-20T06:44:27;99883.75;;;5.92;100.00
33506;BME280;19843;51.040;13.782;2023-12-20T06:47:08;99881.34;;;5.99;100.00
33506;BME280;19843;51.040;13.782;2023-12-20T06:49:36;99885.28;;;5.67;100.00
33506;BME280;19843;51.040;13.782;2023-12-20T06:52:08;99891.63;;;5.99;100.00
33506;BME280;19843;51.040;13.782;2023-12-20T06:54:35;99901.19;;;5.93;100.00
33506;BME280;19843;51.040;13.782;2023-12-20T06:57:11;99906.00;;;6.18;100.00
33506;BME280;19843;51.040;13.782;2023-12-20T06:59:41;99892.97;;;6.53;100.00
33506;BME280;19843;51.040;13.782;2023-12-20T07:02:13;99902.25;;;6.14;100.00
33506;BME280;19843;51.040;13.782;2023-12-20T07:04:46;99906.31;;;6.08;100.00
33506;BME280;19843;51.040;13.782;2023-12-20T07:07:20;99901.72;;;6.12;100.00
33506;BME280;19843;51.040;13.782;2023-12-20T07:09:49;99910.56;;;6.31;100.00
33506;BME280;19843;51.040;13.782;2023-12-20T07:12:17;99901.88;;;6.07;100.00
33506;BME280;19843;51.040;13.782;2023-12-20T07:14:46;99910.38;;;6.10;100.00
33506;BME280;19843;51.040;13.782;2023-12-20T07:17:14;99910.41;;;6.19;100.00
33506;BME280;19843;51.040;13.782;2023-12-20T07:19:42;99906.63;;;6.06;100.00
33506;BME280;19843;51.040;13.782;2023-12-20T07:22:09;99908.28;;;6.25;100.00
33506;BME280;19843;51.040;13.782;2023-12-20T07:24:38;99903.56;;;6.08;100.00
33506;BME280;19843;51.040;13.782;2023-12-20T07:27:06;99909.41;;;6.15;100.00
33506;BME280;19843;51.040;13.782;2023-12-20T07:29:33;99919.56;;;6.28;100.00
33506;BME280;19843;51.040;13.782;2023-12-20T07:32:00;99916.25;;;6.09;100.00
33506;BME280;19843;51.040;13.782;2023-12-20T07:34:28;99918.25;;;6.34;100.00
33506;BME280;19843;51.040;13.782;2023-12-20T07:36:55;99913.06;;;6.41;100.00
33506;BME280;19843;51.040;13.782;2023-12-20T07:39:23;99909.91;;;6.08;100.00
33506;BME280;19843;51.040;13.782;2023-12-20T07:41:52;99909.09;;;6.08;100.00
33506;BME280;19843;51.040;13.782;2023-12-20T07:44:19;99907.88;;;5.92;100.00
33506;BME280;19843;51.040;13.782;2023-12-20T07:46:47;99906.78;;;6.01;100.00
33506;BME280;19843;51.040;13.782;2023-12-20T07:49:15;99912.38;;;6.27;100.00
33506;BME280;19843;51.040;13.782;2023-12-20T07:51:43;99923.75;;;6.17;100.00
33506;BME280;19843;51.040;13.782;2023-12-20T07:54:10;99910.28;;;6.33;100.00
33506;BME280;19843;51.040;13.782;2023-12-20T07:56:38;99897.53;;;6.23;100.00
33506;BME280;19843;51.040;13.782;2023-12-20T07:59:07;99897.50;;;6.06;100.00
33506;BME280;19843;51.040;13.782;2023-12-20T08:01:50;99901.13;;;5.84;100.00
33506;BME280;19843;51.040;13.782;2023-12-20T08:04:18;99907.09;;;6.00;100.00
33506;BME280;19843;51.040;13.782;2023-12-20T08:06:46;99907.03;;;5.91;100.00
33506;BME280;19843;51.040;13.782;2023-12-20T08:09:13;99912.00;;;6.11;100.00
33506;BME280;19843;51.040;13.782;2023-12-20T08:11:44;99916.28;;;6.18;100.00
33506;BME280;19843;51.040;13.782;2023-12-20T08:14:13;99919.72;;;6.23;99.91
33506;BME280;19843;51.040;13.782;2023-12-20T08:16:43;99918.13;;;6.57;98.40
33506;BME280;19843;51.040;13.782;2023-12-20T08:19:11;99912.91;;;6.55;96.56
33506;BME280;19843;51.040;13.782;2023-12-20T08:21:38;99921.53;;;6.54;96.48
33506;BME280;19843;51.040;13.782;2023-12-20T08:24:07;99927.09;;;6.62;95.58
33506;BME280;19843;51.040;13.782;2023-12-20T08:26:34;99920.72;;;6.62;95.50
33506;BME280;19843;51.040;13.782;2023-12-20T08:29:02;99933.41;;;6.46;95.18
33506;BME280;19843;51.040;13.782;2023-12-20T08:31:31;99923.97;;;6.73;93.42
33506;BME280;19843;51.040;13.782;2023-12-20T08:33:59;99920.56;;;6.67;93.93
33506;BME280;19843;51.040;13.782;2023-12-20T08:36:28;99921.88;;;6.70;91.93
33506;BME280;19843;51.040;13.782;2023-12-20T08:38:55;99918.09;;;7.00;92.51
33506;BME280;19843;51.040;13.782;2023-12-20T08:41:22;99910.41;;;7.14;90.62
33506;BME280;19843;51.040;13.782;2023-12-20T08:43:50;99911.34;;;7.27;87.57
33506;BME280;19843;51.040;13.782;2023-12-20T08:46:17;99923.13;;;7.15;88.17
33506;BME280;19843;51.040;13.782;2023-12-20T08:48:46;99919.50;;;7.41;86.87
33506;BME280;19843;51.040;13.782;2023-12-20T08:51:14;99930.63;;;7.24;87.43
33506;BME280;19843;51.040;13.782;2023-12-20T08:53:42;99922.25;;;7.41;85.61
33506;BME280;19843;51.040;13.782;2023-12-20T08:56:11;99932.59;;;7.23;87.00
33506;BME280;19843;51.040;13.782;2023-12-20T08:58:39;99936.19;;;7.24;85.47
33506;BME280;19843;51.040;13.782;2023-12-20T09:01:06;99943.06;;;7.00;85.33
33506;BME280;19843;51.040;13.782;2023-12-20T09:03:34;99936.69;;;7.08;85.02
33506;BME280;19843;51.040;13.782;2023-12-20T09:06:04;99931.16;;;6.91;82.91
33506;BME280;19843;51.040;13.782;2023-12-20T09:08:31;99926.41;;;6.91;82.81
33506;BME280;19843;51.040;13.782;2023-12-20T09:10:59;99931.78;;;7.14;81.12
33506;BME280;19843;51.040;13.782;2023-12-20T09:13:27;99923.56;;;7.35;78.94
33506;BME280;19843;51.040;13.782;2023-12-20T09:15:55;99926.88;;;7.75;77.29
33506;BME280;19843;51.040;13.782;2023-12-20T09:18:23;99920.94;;;7.85;76.73
33506;BME280;19843;51.040;13.782;2023-12-20T09:20:51;99926.19;;;7.78;77.10
33506;BME280;19843;51.040;13.782;2023-12-20T09:23:20;99936.22;;;7.70;76.55
33506;BME280;19843;51.040;13.782;2023-12-20T09:25:47;99929.81;;;7.79;77.01
33506;BME280;19843;51.040;13.782;2023-12-20T09:28:15;99932.50;;;7.96;76.54
33506;BME280;19843;51.040;13.782;2023-12-20T09:30:42;99935.09;;;8.01;76.39
33506;BME280;19843;51.040;13.782;2023-12-20T09:33:12;99917.69;;;8.13;76.24
33506;BME280;19843;51.040;13.782;2023-12-20T09:35:39;99924.50;;;7.94;76.32
33506;BME280;19843;51.040;13.782;2023-12-20T09:38:07;99911.59;;;8.49;74.45
33506;BME280;19843;51.040;13.782;2023-12-20T09:40:38;99909.59;;;7.99;75.15
33506;BME280;19843;51.040;13.782;2023-12-20T09:43:10;99914.69;;;8.27;75.56
33506;BME280;19843;51.040;13.782;2023-12-20T09:45:38;99907.44;;;8.05;75.91
33506;BME280;19843;51.040;13.782;2023-12-20T09:48:09;99909.38;;;7.83;76.74
33506;BME280;19843;51.040;13.782;2023-12-20T09:50:37;99906.38;;;8.18;74.55
33506;BME280;19843;51.040;13.782;2023-12-20T09:53:08;99902.38;;;8.36;74.48
33506;BME280;19843;51.040;13.782;2023-12-20T09:55:37;99901.53;;;8.06;74.94
33506;BME280;19843;51.040;13.782;2023-12-20T09:58:05;99905.41;;;8.43;73.93
33506;BME280;19843;51.040;13.782;2023-12-20T10:00:34;99898.91;;;8.31;74.38
33506;BME280;19843;51.040;13.782;2023-12-20T10:03:03;99889.56;;;9.31;70.47
33506;BME280;19843;51.040;13.782;2023-12-20T10:05:34;99890.31;;;8.86;73.83
33506;BME280;19843;51.040;13.782;2023-12-20T10:08:02;99893.03;;;9.28;71.43
33506;BME280;19843;51.040;13.782;2023-12-20T10:10:30;99890.69;;;8.43;73.71
33506;BME280;19843;51.040;13.782;2023-12-20T10:13:12;99881.75;;;8.08;73.72
33506;BME280;19843;51.040;13.782;2023-12-20T10:15:40;99896.91;;;7.89;74.15
33506;BME280;19843;51.040;13.782;2023-12-20T10:18:09;99888.63;;;8.73;71.57
33506;BME280;19843;51.040;13.782;2023-12-20T10:20:37;99883.44;;;9.05;71.77
33506;BME280;19843;51.040;13.782;2023-12-20T10:23:05;99871.63;;;8.54;71.42
33506;BME280;19843;51.040;13.782;2023-12-20T10:25:33;99870.59;;;8.79;69.88
33506;BME280;19843;51.040;13.782;2023-12-20T10:28:13;99867.53;;;8.93;70.99
33506;BME280;19843;51.040;13.782;2023-12-20T10:30:41;99862.13;;;9.09;71.90
33506;BME280;19843;51.040;13.782;2023-12-20T10:33:10;99860.88;;;8.85;70.37
33506;BME280;19843;51.040;13.782;2023-12-20T10:35:39;99856.28;;;9.47;67.95
33506;BME280;19843;51.040;13.782;2023-12-20T10:38:12;99864.97;;;9.45;69.29
33506;BME280;19843;51.040;13.782;2023-12-20T10:40:40;99869.47;;;8.92;69.33
33506;BME280;19843;51.040;13.782;2023-12-20T10:43:09;99853.81;;;8.88;68.83
33506;BME280;19843;51.040;13.782;2023-12-20T10:45:38;99861.34;;;8.87;69.17
33506;BME280;19843;51.040;13.782;2023-12-20T10:48:07;99841.88;;;9.45;68.03
33506;BME280;19843;51.040;13.782;2023-12-20T10:50:36;99832.06;;;8.69;68.83
33506;BME280;19843;51.040;13.782;2023-12-20T10:53:06;99833.03;;;8.85;68.33
33506;BME280;19843;51.040;13.782;2023-12-20T10:55:34;99824.59;;;9.52;67.25
33506;BME280;19843;51.040;13.782;2023-12-20T10:58:06;99826.09;;;8.91;66.78
33506;BME280;19843;51.040;13.782;2023-12-20T11:00:40;99835.75;;;9.06;67.54
33506;BME280;19843;51.040;13.782;2023-12-20T11:03:09;99829.81;;;8.95;68.32
33506;BME280;19843;51.040;13.782;2023-12-20T11:05:41;99827.34;;;8.82;67.35
33506;BME280;19843;51.040;13.782;2023-12-20T11:08:20;99834.91;;;9.51;65.60
33506;BME280;19843;51.040;13.782;2023-12-20T11:10:56;99831.03;;;8.74;66.66
33506;BME280;19843;51.040;13.782;2023-12-20T11:13:31;99830.09;;;9.15;65.27
33506;BME280;19843;51.040;13.782;2023-12-20T11:16:02;99825.56;;;9.10;65.91
33506;BME280;19843;51.040;13.782;2023-12-20T11:18:30;99819.53;;;8.42;66.67
33506;BME280;19843;51.040;13.782;2023-12-20T11:21:00;99811.56;;;8.53;67.83
33506;BME280;19843;51.040;13.782;2023-12-20T11:23:29;99812.53;;;8.36;67.45
33506;BME280;19843;51.040;13.782;2023-12-20T11:25:57;99817.13;;;8.11;67.43
33506;BME280;19843;51.040;13.782;2023-12-20T11:28:26;99830.63;;;8.00;67.79
33506;BME280;19843;51.040;13.782;2023-12-20T11:30:55;99818.03;;;8.03;67.39
33506;BME280;19843;51.040;13.782;2023-12-20T11:33:25;99814.94;;;8.16;67.46
33506;BME280;19843;51.040;13.782;2023-12-20T11:35:56;99816.78;;;8.33;67.97
33506;BME280;19843;51.040;13.782;2023-12-20T11:38:24;99826.47;;;8.06;68.60
33506;BME280;19843;51.040;13.782;2023-12-20T11:40:53;99824.09;;;7.96;69.08
33506;BME280;19843;51.040;13.782;2023-12-20T11:43:31;99815.19;;;7.82;69.43
33506;BME280;19843;51.040;13.782;2023-12-20T11:46:04;99818.88;;;8.15;69.31
33506;BME280;19843;51.040;13.782;2023-12-20T11:48:36;99820.44;;;7.83;69.02
33506;BME280;19843;51.040;13.782;2023-12-20T11:51:09;99810.19;;;7.96;69.61
33506;BME280;19843;51.040;13.782;2023-12-20T11:53:37;99798.53;;;7.82;68.67
33506;BME280;19843;51.040;13.782;2023-12-20T11:56:05;99791.75;;;7.91;67.87
33506;BME280;19843;51.040;13.782;2023-12-20T11:58:34;99789.38;;;7.81;69.21
33506;BME280;19843;51.040;13.782;2023-12-20T12:01:03;99784.47;;;7.57;68.86
33506;BME280;19843;51.040;13.782;2023-12-20T12:03:35;99790.34;;;8.48;66.70
33506;BME280;19843;51.040;13.782;2023-12-20T12:06:03;99772.38;;;8.25;67.22
33506;BME280;19843;51.040;13.782;2023-12-20T12:08:32;99768.25;;;7.89;68.14
33506;BME280;19843;51.040;13.782;2023-12-20T12:10:59;99766.19;;;8.19;67.13
33506;BME280;19843;51.040;13.782;2023-12-20T12:13:27;99762.63;;;8.18;67.59
33506;BME280;19843;51.040;13.782;2023-12-20T12:15:55;99775.94;;;8.25;66.19
33506;BME280;19843;51.040;13.782;2023-12-20T12:18:24;99756.78;;;8.32;66.52
33506;BME280;19843;51.040;13.782;2023-12-20T12:21:00;99740.56;;;8.67;65.43
33506;BME280;19843;51.040;13.782;2023-12-20T12:23:35;99750.19;;;8.16;66.59
33506;BME280;19843;51.040;13.782;2023-12-20T12:26:03;99748.84;;;8.22;66.90
33506;BME280;19843;51.040;13.782;2023-12-20T12:28:31;99744.94;;;8.35;65.46
33506;BME280;19843;51.040;13.782;2023-12-20T12:30:59;99743.44;;;8.59;65.87
33506;BME280;19843;51.040;13.782;2023-12-20T12:33:27;99725.91;;;8.25;65.77
33506;BME280;19843;51.040;13.782;2023-12-20T12:35:55;99727.78;;;8.54;65.01
33506;BME280;19843;51.040;13.782;2023-12-20T12:38:24;99714.06;;;9.19;62.92
33506;BME280;19843;51.040;13.782;2023-12-20T12:40:52;99716.09;;;8.61;65.29
33506;BME280;19843;51.040;13.782;2023-12-20T12:43:20;99722.50;;;8.74;65.75
33506;BME280;19843;51.040;13.782;2023-12-20T12:45:49;99720.03;;;8.60;64.36
33506;BME280;19843;51.040;13.782;2023-12-20T12:48:17;99730.91;;;8.53;63.83
33506;BME280;19843;51.040;13.782;2023-12-20T12:50:45;99721.03;;;8.43;66.15
33506;BME280;19843;51.040;13.782;2023-12-20T12:53:12;99694.78;;;8.11;65.25
33506;BME280;19843;51.040;13.782;2023-12-20T12:55:41;99709.81;;;8.64;65.12
33506;BME280;19843;51.040;13.782;2023-12-20T12:58:09;99713.94;;;8.79;64.84
33506;BME280;19843;51.040;13.782;2023-12-20T13:00:36;99702.38;;;8.23;65.08
33506;BME280;19843;51.040;13.782;2023-12-20T13:03:04;99710.09;;;8.71;64.71